Time;durP1;ratioP1;P1;durP2;ratioP2;P2;SDS_P1;SDS_P2;PMS_P1;PMS_P2;Temp;Humidity;BMP_temperature;BMP_pressure;BME280_temperature;BME280_humidity;BME280_pressure;Samples;Min_cycle;Max_cycle;Signal;HPM_P1;HPM_P2
2023/12/16 00:00:54;;;;;;;5.78;5.18;;;10.40;99.90;;;;;;5131023;27;20120;-79
2023/12/16 00:03:20;;;;;;;5.90;5.32;;;10.40;99.90;;;;;;5130812;28;20031;-77
2023/12/16 00:05:47;;;;;;;5.20;4.70;;;10.30;99.90;;;;;;5112680;28;20019;-79
2023/12/16 00:08:13;;;;;;;7.07;6.40;;;10.30;99.90;;;;;;5130402;28;20019;-79
2023/12/16 00:10:39;;;;;;;5.40;4.30;;;10.30;99.90;;;;;;5131516;28;20031;-78
2023/12/16 00:13:04;;;;;;;4.80;4.40;;;10.20;99.90;;;;;;5112905;28;20031;-78
2023/12/16 00:15:30;;;;;;;4.63;4.22;;;10.20;99.90;;;;;;5130733;28;20132;-79
2023/12/16 00:17:55;;;;;;;4.05;3.65;;;10.20;99.90;;;;;;5132641;27;20383;-79
2023/12/16 00:20:21;;;;;;;4.32;3.92;;;10.20;99.90;;;;;;5134428;27;20080;-79
2023/12/16 00:22:47;;;;;;;4.53;3.75;;;10.10;99.90;;;;;;5134434;27;20055;-78
2023/12/16 00:25:13;;;;;;;3.92;3.63;;;10.10;99.90;;;;;;5115583;27;20038;-78
2023/12/16 00:27:38;;;;;;;4.32;3.90;;;10.10;99.90;;;;;;5134816;27;20105;-78
2023/12/16 00:30:06;;;;;;;3.70;3.40;;;10.00;99.90;;;;;;5134852;27;20053;-78
2023/12/16 00:32:31;;;;;;;3.85;3.55;;;10.00;99.90;;;;;;5134150;27;20113;-78
2023/12/16 00:34:57;;;;;;;3.40;3.10;;;9.90;99.90;;;;;;5134473;27;20109;-78
2023/12/16 00:37:23;;;;;;;3.80;3.47;;;9.90;99.90;;;;;;5134184;27;20368;-79
2023/12/16 00:39:49;;;;;;;3.70;3.40;;;9.80;99.90;;;;;;5134610;27;20034;-78
2023/12/16 00:42:15;;;;;;;4.00;3.65;;;9.80;99.90;;;;;;5134042;27;20160;-79
2023/12/16 00:44:41;;;;;;;3.50;3.20;;;9.70;99.90;;;;;;5134669;27;20041;-78
2023/12/16 00:47:06;;;;;;;3.72;3.42;;;9.60;99.90;;;;;;5115115;27;20019;-78
2023/12/16 00:49:32;;;;;;;4.45;4.05;;;9.60;99.90;;;;;;5133805;27;20035;-78
2023/12/16 00:51:58;;;;;;;4.60;4.20;;;9.50;99.90;;;;;;5134055;27;20064;-78
2023/12/16 00:54:24;;;;;;;5.10;4.35;;;9.50;99.90;;;;;;5133453;27;20019;-78
2023/12/16 00:56:50;;;;;;;4.22;3.83;;;9.50;99.90;;;;;;5134321;27;20135;-79
2023/12/16 00:59:18;;;;;;;4.60;3.67;;;9.50;99.90;;;;;;5133391;27;20078;-79
2023/12/16 01:01:44;;;;;;;6.03;4.05;;;9.40;99.90;;;;;;5133897;27;20035;-79
2023/12/16 01:04:10;;;;;;;4.60;4.20;;;9.40;99.90;;;;;;5134099;27;20163;-79
2023/12/16 01:06:36;;;;;;;4.47;3.88;;;9.30;99.90;;;;;;5133705;27;20043;-78
2023/12/16 01:09:01;;;;;;;4.38;3.60;;;9.40;99.90;;;;;;5115231;27;20395;-78
2023/12/16 01:11:27;;;;;;;3.38;3.08;;;9.40;99.90;;;;;;5133547;27;20031;-79
2023/12/16 01:13:53;;;;;;;3.35;3.05;;;9.60;99.90;;;;;;5134049;27;20076;-79
2023/12/16 01:16:18;;;;;;;3.50;3.20;;;9.80;99.90;;;;;;5133227;27;20123;-78
2023/12/16 01:18:44;;;;;;;2.85;2.65;;;10.00;99.90;;;;;;5133973;27;20030;-78
2023/12/16 01:21:10;;;;;;;3.38;3.08;;;10.00;99.90;;;;;;5133556;27;20050;-78
2023/12/16 01:23:36;;;;;;;2.78;2.58;;;10.10;99.90;;;;;;5115160;27;20487;-78
2023/12/16 01:26:03;;;;;;;3.10;2.80;;;10.20;99.90;;;;;;5133357;27;20511;-79
2023/12/16 01:28:30;;;;;;;3.33;3.03;;;10.20;99.90;;;;;;5113986;27;20023;-78
2023/12/16 01:30:56;;;;;;;5.22;3.00;;;10.20;99.90;;;;;;5133435;27;20039;-78
2023/12/16 01:33:22;;;;;;;3.83;3.05;;;10.30;99.90;;;;;;5133251;27;20110;-79
2023/12/16 01:35:48;;;;;;;3.72;2.80;;;10.30;99.90;;;;;;5133839;27;20160;-79
2023/12/16 01:38:14;;;;;;;3.00;2.80;;;10.30;99.90;;;;;;5133162;27;20468;-79
2023/12/16 01:40:40;;;;;;;3.17;2.85;;;10.30;99.90;;;;;;5134912;27;20027;-79
2023/12/16 01:43:07;;;;;;;2.80;2.60;;;10.30;99.90;;;;;;5134749;27;20027;-79
2023/12/16 01:45:32;;;;;;;3.30;3.00;;;10.30;99.90;;;;;;5134003;27;20154;-79
2023/12/16 01:47:59;;;;;;;2.95;2.75;;;10.30;99.90;;;;;;5134111;27;20081;-79
2023/12/16 01:50:26;;;;;;;3.28;2.97;;;10.30;99.90;;;;;;5097961;27;20024;-79
2023/12/16 01:52:53;;;;;;;2.97;2.78;;;10.40;99.90;;;;;;5133118;27;20028;-79
2023/12/16 01:55:20;;;;;;;2.90;2.70;;;10.40;99.90;;;;;;5133101;27;20019;-79
2023/12/16 01:57:47;;;;;;;3.03;2.70;;;10.40;99.90;;;;;;5133487;27;20024;-79
2023/12/16 02:00:13;;;;;;;2.90;2.60;;;10.40;99.90;;;;;;5133411;27;20129;-78
2023/12/16 02:02:40;;;;;;;2.70;2.50;;;10.40;99.90;;;;;;5134093;27;20080;-78
2023/12/16 02:05:07;;;;;;;2.95;2.40;;;10.30;99.90;;;;;;5114946;27;20087;-78
2023/12/16 02:07:33;;;;;;;2.50;2.30;;;10.40;99.90;;;;;;5132641;27;20123;-78
2023/12/16 02:10:01;;;;;;;2.70;2.50;;;10.40;99.90;;;;;;5133187;27;20039;-78
2023/12/16 02:12:27;;;;;;;2.80;2.58;;;10.40;99.90;;;;;;5132686;27;20042;-78
2023/12/16 02:14:53;;;;;;;2.88;2.20;;;10.40;99.90;;;;;;5133137;27;20033;-77
2023/12/16 02:17:18;;;;;;;2.45;2.20;;;10.50;99.90;;;;;;5133060;27;20103;-77
2023/12/16 02:19:47;;;;;;;3.03;2.83;;;10.50;99.90;;;;;;5133276;27;20065;-78
2023/12/16 02:22:13;;;;;;;2.53;2.33;;;10.50;99.90;;;;;;5133035;27;20081;-78
2023/12/16 02:24:41;;;;;;;2.72;2.53;;;10.40;99.90;;;;;;5133286;27;20095;-79
2023/12/16 02:27:08;;;;;;;2.67;2.47;;;10.40;99.90;;;;;;5133016;27;20024;-78
2023/12/16 02:29:33;;;;;;;3.60;2.97;;;10.40;99.90;;;;;;5132450;27;20018;-79
2023/12/16 02:32:00;;;;;;;2.70;2.50;;;10.40;99.90;;;;;;5133020;27;20035;-77
2023/12/16 02:34:26;;;;;;;3.08;2.78;;;10.40;99.90;;;;;;5132446;27;20027;-78
2023/12/16 02:36:52;;;;;;;3.03;2.83;;;10.40;99.90;;;;;;5114732;27;20030;-77
2023/12/16 02:39:18;;;;;;;3.05;2.85;;;10.30;99.90;;;;;;5113342;27;20027;-78
2023/12/16 02:41:44;;;;;;;3.50;3.20;;;10.20;99.90;;;;;;5132482;27;20372;-77
2023/12/16 02:44:10;;;;;;;3.78;3.03;;;10.30;99.90;;;;;;5134035;27;20095;-78
2023/12/16 02:46:35;;;;;;;3.00;2.80;;;10.20;99.90;;;;;;5132316;27;20110;-78
2023/12/16 02:49:01;;;;;;;3.20;2.90;;;10.20;99.90;;;;;;5133204;27;20145;-78
2023/12/16 02:51:29;;;;;;;3.72;3.30;;;10.10;99.90;;;;;;5132227;27;20041;-78
2023/12/16 02:53:54;;;;;;;3.30;3.00;;;10.10;99.90;;;;;;5132071;27;20031;-78
2023/12/16 02:56:20;;;;;;;4.05;3.08;;;10.00;99.90;;;;;;5132056;27;20031;-78
2023/12/16 02:58:46;;;;;;;3.53;3.22;;;10.00;99.90;;;;;;5132144;27;20026;-78
2023/12/16 03:01:12;;;;;;;3.10;2.90;;;9.90;99.90;;;;;;5132946;27;20063;-78
2023/12/16 03:03:39;;;;;;;3.05;2.80;;;9.90;99.90;;;;;;5131630;27;20526;-78
2023/12/16 03:06:08;;;;;;;3.00;2.80;;;10.00;99.90;;;;;;5132284;27;20019;-79
2023/12/16 03:08:34;;;;;;;3.45;3.15;;;10.00;99.90;;;;;;5113244;27;20031;-78
2023/12/16 03:11:04;;;;;;;3.30;2.50;;;10.00;99.90;;;;;;5132081;27;20031;-78
2023/12/16 03:13:30;;;;;;;3.10;2.90;;;10.00;99.90;;;;;;5131681;27;20038;-78
2023/12/16 03:15:56;;;;;;;3.28;2.97;;;10.00;99.90;;;;;;5131888;27;20027;-78
2023/12/16 03:18:22;;;;;;;2.55;2.35;;;9.90;99.90;;;;;;5131799;27;20030;-79
2023/12/16 03:20:50;;;;;;;2.47;2.30;;;9.90;99.90;;;;;;5132238;27;20027;-78
2023/12/16 03:23:16;;;;;;;3.10;2.90;;;9.90;99.90;;;;;;5131065;27;20384;-78
2023/12/16 03:25:45;;;;;;;3.05;2.80;;;9.90;99.90;;;;;;5131533;27;20023;-78
2023/12/16 03:28:11;;;;;;;3.40;3.10;;;9.80;99.90;;;;;;5131958;27;20409;-78
2023/12/16 03:30:41;;;;;;;2.75;2.55;;;9.70;99.90;;;;;;5131057;27;20569;-77
2023/12/16 03:33:08;;;;;;;3.13;2.85;;;9.70;99.90;;;;;;5113352;27;20023;-77
2023/12/16 03:35:33;;;;;;;3.05;2.85;;;9.80;99.90;;;;;;5131159;27;20062;-77
2023/12/16 03:38:00;;;;;;;2.85;2.47;;;9.80;99.90;;;;;;5131718;27;20370;-78
2023/12/16 03:40:26;;;;;;;2.70;2.50;;;9.90;99.90;;;;;;5131200;27;20023;-78
2023/12/16 03:42:52;;;;;;;2.15;2.05;;;10.00;99.90;;;;;;5131659;27;20062;-78
2023/12/16 03:45:17;;;;;;;2.40;2.20;;;10.00;99.90;;;;;;5131550;27;20055;-78
2023/12/16 03:47:43;;;;;;;2.45;2.25;;;10.00;99.90;;;;;;5131954;27;20031;-78
2023/12/16 03:50:09;;;;;;;2.33;2.05;;;10.00;99.90;;;;;;5131398;27;20081;-78
2023/12/16 03:52:35;;;;;;;2.42;2.22;;;10.00;99.90;;;;;;5112034;27;20387;-78
2023/12/16 03:55:01;;;;;;;2.40;2.20;;;10.00;99.90;;;;;;5131626;28;20027;-78
2023/12/16 03:57:29;;;;;;;2.47;2.28;;;10.10;99.90;;;;;;5130833;28;20503;-79
2023/12/16 03:59:56;;;;;;;3.17;2.30;;;10.10;99.90;;;;;;5131437;27;20110;-78
2023/12/16 04:02:21;;;;;;;2.17;2.08;;;10.10;99.90;;;;;;5131527;28;20117;-78
2023/12/16 04:04:47;;;;;;;2.75;2.17;;;10.20;99.90;;;;;;5132057;28;20443;-78
2023/12/16 04:07:13;;;;;;;2.25;1.80;;;10.20;99.90;;;;;;5131605;28;20059;-78
2023/12/16 04:09:40;;;;;;;2.10;2.00;;;10.20;99.90;;;;;;5131165;28;20020;-78
2023/12/16 04:12:06;;;;;;;2.60;2.40;;;10.20;99.90;;;;;;5131026;28;20050;-76
2023/12/16 04:14:36;;;;;;;2.35;2.25;;;10.30;99.90;;;;;;5131362;28;20096;-78
2023/12/16 04:17:02;;;;;;;2.47;2.28;;;10.40;99.90;;;;;;5131638;28;20030;-77
2023/12/16 04:19:27;;;;;;;2.25;2.10;;;10.40;99.90;;;;;;5130967;28;20023;-78
2023/12/16 04:21:53;;;;;;;2.20;2.10;;;10.50;99.90;;;;;;5131893;28;20050;-78
2023/12/16 04:24:19;;;;;;;2.60;2.40;;;10.50;99.90;;;;;;5131631;28;20076;-78
2023/12/16 04:26:45;;;;;;;2.50;2.30;;;10.50;99.90;;;;;;5131157;28;20357;-76
2023/12/16 04:29:10;;;;;;;2.47;2.28;;;10.50;99.90;;;;;;5131780;28;20033;-78
2023/12/16 04:31:37;;;;;;;2.47;2.28;;;10.50;99.90;;;;;;5130862;28;20426;-77
2023/12/16 04:34:03;;;;;;;2.17;1.98;;;10.40;99.90;;;;;;5130956;28;20567;-78
2023/12/16 04:36:29;;;;;;;2.60;2.40;;;10.40;99.90;;;;;;5130875;28;20023;-79
2023/12/16 04:38:54;;;;;;;2.83;2.63;;;10.50;99.90;;;;;;5131104;28;20420;-78
2023/12/16 04:41:20;;;;;;;2.70;2.50;;;10.40;99.90;;;;;;5112846;28;20027;-79
2023/12/16 04:43:46;;;;;;;2.70;2.50;;;10.40;99.90;;;;;;5130740;28;20084;-79
2023/12/16 04:46:12;;;;;;;2.67;2.47;;;10.40;99.90;;;;;;5130907;28;20031;-79
2023/12/16 04:48:38;;;;;;;2.70;2.50;;;10.30;99.90;;;;;;5130503;28;20475;-79
2023/12/16 04:51:05;;;;;;;2.97;2.58;;;10.30;99.90;;;;;;5130828;28;20472;-79
2023/12/16 04:53:34;;;;;;;2.55;2.35;;;10.30;99.90;;;;;;5130417;28;20023;-79
2023/12/16 04:56:00;;;;;;;2.53;2.42;;;10.20;99.90;;;;;;5130704;28;20089;-78
2023/12/16 04:58:26;;;;;;;2.38;2.17;;;10.20;99.90;;;;;;5130382;28;20464;-79
2023/12/16 05:00:52;;;;;;;2.70;2.50;;;10.20;99.90;;;;;;5131083;28;20104;-78
2023/12/16 05:03:17;;;;;;;2.58;2.38;;;10.30;99.90;;;;;;5131503;27;20023;-79
2023/12/16 05:05:43;;;;;;;2.60;2.40;;;10.20;99.90;;;;;;5133749;27;20019;-78
2023/12/16 05:08:11;;;;;;;2.53;2.33;;;10.10;99.90;;;;;;5134856;27;20480;-79
2023/12/16 05:10:37;;;;;;;2.30;2.10;;;10.10;99.90;;;;;;5115952;27;20035;-79
2023/12/16 05:13:02;;;;;;;2.08;1.98;;;10.10;99.90;;;;;;5134963;27;20054;-79
2023/12/16 05:15:28;;;;;;;2.00;1.90;;;10.10;99.90;;;;;;5134965;27;20038;-79
2023/12/16 05:17:54;;;;;;;1.70;1.60;;;10.10;99.90;;;;;;5135313;27;20057;-79
2023/12/16 05:20:19;;;;;;;2.38;2.17;;;10.10;99.90;;;;;;5135494;27;20026;-79
2023/12/16 05:22:45;;;;;;;2.10;1.90;;;10.10;99.90;;;;;;5135329;27;20428;-78
2023/12/16 05:25:11;;;;;;;1.90;1.77;;;10.10;99.90;;;;;;5135200;27;20156;-79
2023/12/16 05:27:37;;;;;;;1.60;1.50;;;10.10;99.90;;;;;;5133556;27;20068;-77
2023/12/16 05:30:03;;;;;;;1.60;1.50;;;10.10;99.90;;;;;;5133689;27;20061;-78
2023/12/16 05:32:29;;;;;;;1.52;1.10;;;10.10;99.90;;;;;;5132916;27;20382;-78
2023/12/16 05:34:56;;;;;;;1.13;1.10;;;10.10;99.90;;;;;;5134149;27;20023;-78
2023/12/16 05:37:21;;;;;;;1.55;1.10;;;10.10;99.90;;;;;;5133615;27;20103;-78
2023/12/16 05:39:47;;;;;;;1.00;1.00;;;10.20;99.90;;;;;;5132997;27;20398;-79
2023/12/16 05:42:13;;;;;;;1.40;1.25;;;10.20;99.90;;;;;;5133898;27;20132;-78
2023/12/16 05:44:39;;;;;;;1.10;1.00;;;10.20;99.90;;;;;;5132959;27;20046;-78
2023/12/16 05:47:08;;;;;;;1.15;0.88;;;10.20;99.90;;;;;;5133864;27;20020;-78
2023/12/16 05:49:33;;;;;;;2.85;1.17;;;10.20;99.90;;;;;;5132535;27;20409;-78
2023/12/16 05:51:59;;;;;;;1.60;1.50;;;10.10;99.90;;;;;;5133678;27;20081;-78
2023/12/16 05:54:25;;;;;;;1.10;1.10;;;10.20;99.90;;;;;;5114796;27;20027;-78
2023/12/16 05:56:51;;;;;;;1.00;1.00;;;10.10;99.90;;;;;;5133037;27;20111;-78
2023/12/16 05:59:17;;;;;;;1.38;1.27;;;10.10;99.90;;;;;;5133226;27;20068;-78
2023/12/16 06:01:44;;;;;;;1.48;1.30;;;10.10;99.90;;;;;;5132886;27;20031;-78
2023/12/16 06:04:09;;;;;;;1.45;1.20;;;10.00;99.90;;;;;;5133685;27;20055;-78
2023/12/16 06:06:35;;;;;;;1.30;1.20;;;9.90;99.90;;;;;;5132332;27;20127;-77
2023/12/16 06:09:01;;;;;;;2.17;1.52;;;9.90;99.90;;;;;;5133214;27;20050;-77
2023/12/16 06:11:27;;;;;;;1.30;1.20;;;9.80;99.90;;;;;;5132484;27;20046;-77
2023/12/16 06:13:53;;;;;;;1.30;1.17;;;9.80;99.90;;;;;;5132763;27;20083;-78
2023/12/16 06:16:19;;;;;;;1.10;1.10;;;9.80;99.90;;;;;;5133140;27;20019;-77
2023/12/16 06:18:46;;;;;;;1.35;1.25;;;9.70;99.90;;;;;;5132441;27;20023;-77
2023/12/16 06:21:12;;;;;;;1.75;1.48;;;9.70;99.90;;;;;;5114835;27;20035;-77
2023/12/16 06:23:38;;;;;;;1.52;1.40;;;9.70;99.90;;;;;;5113633;27;20034;-78
2023/12/16 06:26:04;;;;;;;2.03;1.30;;;9.60;99.90;;;;;;5132576;27;20051;-78
2023/12/16 06:28:30;;;;;;;1.30;1.20;;;9.60;99.90;;;;;;5131939;27;20486;-78
2023/12/16 06:30:56;;;;;;;1.60;1.50;;;9.70;99.90;;;;;;5132607;27;20404;-78
2023/12/16 06:33:24;;;;;;;1.40;1.30;;;9.70;99.90;;;;;;5132778;27;20038;-77
2023/12/16 06:35:51;;;;;;;1.48;1.38;;;9.70;99.90;;;;;;5131904;27;20023;-77
2023/12/16 06:38:17;;;;;;;1.40;1.30;;;9.70;99.90;;;;;;5132591;27;20027;-76
2023/12/16 06:40:43;;;;;;;1.40;1.30;;;9.70;99.90;;;;;;5131916;27;20565;-77
2023/12/16 06:43:08;;;;;;;1.50;1.40;;;9.70;99.90;;;;;;5132474;27;20034;-77
2023/12/16 06:45:34;;;;;;;2.08;1.50;;;9.70;99.90;;;;;;5112960;27;20365;-78
2023/12/16 06:48:00;;;;;;;1.50;1.40;;;9.80;99.90;;;;;;5132431;27;20023;-78
2023/12/16 06:50:26;;;;;;;1.40;1.30;;;9.70;99.90;;;;;;5113760;27;20027;-78
2023/12/16 06:52:52;;;;;;;1.42;1.33;;;9.70;99.90;;;;;;5131888;27;20019;-79
2023/12/16 06:55:18;;;;;;;1.30;1.20;;;9.70;99.90;;;;;;5132297;27;20076;-78
2023/12/16 06:57:44;;;;;;;1.38;1.27;;;9.70;99.90;;;;;;5131609;27;20089;-78
2023/12/16 07:00:11;;;;;;;1.35;1.25;;;9.70;99.90;;;;;;5132057;27;20126;-78
2023/12/16 07:02:37;;;;;;;1.45;0.98;;;9.70;99.90;;;;;;5132025;27;20464;-78
2023/12/16 07:05:04;;;;;;;1.48;1.08;;;9.70;99.90;;;;;;5132352;27;20035;-78
2023/12/16 07:07:31;;;;;;;1.63;1.52;;;9.70;99.90;;;;;;5132084;27;20441;-77
2023/12/16 07:09:56;;;;;;;1.30;1.20;;;9.70;99.90;;;;;;5113352;27;20019;-78
2023/12/16 07:12:23;;;;;;;1.48;1.38;;;9.80;99.90;;;;;;5132188;27;20486;-77
2023/12/16 07:14:49;;;;;;;1.45;1.20;;;9.70;99.90;;;;;;5130986;27;20472;-76
2023/12/16 07:17:14;;;;;;;1.35;1.17;;;9.80;99.90;;;;;;5131972;27;20034;-77
2023/12/16 07:19:40;;;;;;;1.88;0.98;;;9.70;99.90;;;;;;5130845;27;20033;-77
2023/12/16 07:22:06;;;;;;;1.02;0.98;;;9.80;99.90;;;;;;5131677;27;20027;-77
2023/12/16 07:24:32;;;;;;;0.90;0.90;;;9.70;99.90;;;;;;5131653;27;20511;-78
2023/12/16 07:26:57;;;;;;;1.02;0.93;;;9.70;99.90;;;;;;5131113;27;20140;-78
2023/12/16 07:29:25;;;;;;;1.58;1.35;;;9.70;99.90;;;;;;5131272;27;20237;-78
2023/12/16 07:31:51;;;;;;;1.15;1.05;;;9.70;99.90;;;;;;5131570;27;20051;-77
2023/12/16 07:34:17;;;;;;;1.20;1.10;;;9.70;99.90;;;;;;5113098;27;20109;-77
2023/12/16 07:36:43;;;;;;;1.17;1.10;;;9.60;99.90;;;;;;5131119;27;20380;-77
2023/12/16 07:39:09;;;;;;;1.55;1.45;;;9.60;99.90;;;;;;5131353;27;20027;-78
2023/12/16 07:41:35;;;;;;;1.50;1.40;;;9.60;99.90;;;;;;5131276;27;20064;-79
2023/12/16 07:44:01;;;;;;;1.63;1.52;;;9.60;99.90;;;;;;5113095;27;20023;-78
2023/12/16 07:46:27;;;;;;;1.20;1.10;;;9.60;99.90;;;;;;5131370;27;20023;-78
2023/12/16 07:48:53;;;;;;;1.20;1.10;;;9.60;99.90;;;;;;5130868;27;20455;-77
2023/12/16 07:51:25;;;;;;;2.15;1.45;;;9.60;99.90;;;;;;5131283;27;20134;-79
2023/12/16 07:53:52;;;;;;;1.15;1.13;;;9.60;99.90;;;;;;5130897;27;20028;-78
2023/12/16 07:56:27;;;;;;;1.40;1.30;;;9.60;99.90;;;;;;5130983;28;20154;-78
2023/12/16 07:58:53;;;;;;;2.58;1.30;;;9.60;99.90;;;;;;5112839;28;20037;-78
2023/12/16 08:01:19;;;;;;;1.33;1.17;;;9.60;99.90;;;;;;5131573;28;20059;-78
2023/12/16 08:03:46;;;;;;;1.48;1.20;;;9.60;99.90;;;;;;5131421;28;20102;-78
2023/12/16 08:06:14;;;;;;;2.35;1.10;;;9.60;99.90;;;;;;5131905;28;20027;-78
2023/12/16 08:08:41;;;;;;;1.52;1.20;;;9.60;99.90;;;;;;5130865;28;20019;-78
2023/12/16 08:11:08;;;;;;;0.90;0.90;;;9.60;99.90;;;;;;5131262;28;20031;-78
2023/12/16 08:13:34;;;;;;;0.85;0.85;;;9.60;99.90;;;;;;5131127;28;20038;-77
2023/12/16 08:16:01;;;;;;;1.20;1.10;;;9.60;99.90;;;;;;5131625;28;20027;-79
2023/12/16 08:18:27;;;;;;;0.82;0.82;;;9.60;99.90;;;;;;5131227;28;20301;-77
2023/12/16 08:20:54;;;;;;;0.70;0.70;;;9.60;99.90;;;;;;5130517;28;20031;-77
2023/12/16 08:23:20;;;;;;;0.73;0.70;;;9.70;99.90;;;;;;5131772;28;20023;-76
2023/12/16 08:25:47;;;;;;;0.95;0.77;;;9.70;99.90;;;;;;5130136;28;20035;-78
2023/12/16 08:28:12;;;;;;;1.38;1.05;;;9.80;99.90;;;;;;5130807;28;20163;-78
2023/12/16 08:30:38;;;;;;;0.70;0.70;;;9.70;99.90;;;;;;5130293;28;20031;-78
2023/12/16 08:33:04;;;;;;;0.85;0.63;;;9.80;99.90;;;;;;5131046;28;20098;-79
2023/12/16 08:35:30;;;;;;;0.60;0.60;;;9.80;99.90;;;;;;5131394;28;20328;-79
2023/12/16 08:37:56;;;;;;;0.77;0.63;;;9.90;99.90;;;;;;5130666;27;20027;-80
2023/12/16 08:40:22;;;;;;;0.60;0.60;;;10.00;99.90;;;;;;5134812;27;20050;-79
2023/12/16 08:42:48;;;;;;;0.95;0.80;;;10.10;99.90;;;;;;5134195;27;20405;-80
2023/12/16 08:45:14;;;;;;;0.40;0.40;;;10.10;99.90;;;;;;5134863;27;20065;-80
2023/12/16 08:47:40;;;;;;;0.55;0.55;;;10.10;99.90;;;;;;5134371;27;20031;-79
2023/12/16 08:50:07;;;;;;;3.20;0.90;;;10.10;99.90;;;;;;5135298;27;20033;-79
2023/12/16 08:52:33;;;;;;;0.52;0.52;;;10.10;99.90;;;;;;5134594;27;20039;-78
2023/12/16 08:54:59;;;;;;;1.00;0.70;;;10.00;99.90;;;;;;5115788;27;20110;-78
2023/12/16 08:57:27;;;;;;;0.75;0.73;;;10.00;99.90;;;;;;5134707;27;20110;-79
2023/12/16 08:59:53;;;;;;;0.95;0.65;;;10.10;99.90;;;;;;5135647;27;20047;-78
2023/12/16 09:02:19;;;;;;;0.40;0.40;;;10.10;99.90;;;;;;5135033;27;20459;-78
2023/12/16 09:04:45;;;;;;;1.13;0.75;;;10.20;99.90;;;;;;5137371;27;20034;-78
2023/12/16 09:07:11;;;;;;;2.72;0.70;;;10.20;99.90;;;;;;5141301;27;20027;-78
2023/12/16 09:09:37;;;;;;;0.82;0.80;;;10.20;99.90;;;;;;5137009;27;20019;-77
2023/12/16 09:12:05;;;;;;;1.63;1.00;;;10.30;99.90;;;;;;5133985;27;20031;-78
2023/12/16 09:14:30;;;;;;;2.03;1.83;;;10.40;99.90;;;;;;5134070;27;20015;-78
2023/12/16 09:16:56;;;;;;;2.28;1.38;;;10.40;99.90;;;;;;5133334;27;20485;-79
2023/12/16 09:19:22;;;;;;;2.05;1.38;;;10.40;99.90;;;;;;5115595;27;20072;-79
2023/12/16 09:21:49;;;;;;;0.98;0.88;;;10.40;99.90;;;;;;5133346;27;20376;-79
2023/12/16 09:24:14;;;;;;;3.38;1.40;;;10.40;99.90;;;;;;5134415;27;20030;-79
2023/12/16 09:26:40;;;;;;;1.95;0.70;;;10.40;99.90;;;;;;5133662;27;20027;-79
2023/12/16 09:29:06;;;;;;;1.05;0.57;;;10.40;99.90;;;;;;5133740;27;20035;-80
2023/12/16 09:31:32;;;;;;;1.13;0.77;;;10.40;99.90;;;;;;5134078;27;20046;-79
2023/12/16 09:33:58;;;;;;;0.82;0.68;;;10.40;99.90;;;;;;5134552;27;20417;-79
2023/12/16 09:36:27;;;;;;;0.52;0.52;;;10.40;99.90;;;;;;5135227;27;20106;-80
2023/12/16 09:38:57;;;;;;;0.50;0.50;;;10.40;99.90;;;;;;5134120;27;20027;-80
2023/12/16 09:41:30;;;;;;;0.50;0.50;;;10.40;99.90;;;;;;5133551;27;20109;-79
2023/12/16 09:43:58;;;;;;;0.75;0.40;;;10.50;99.90;;;;;;5132804;27;20038;-79
2023/12/16 09:46:28;;;;;;;0.50;0.40;;;10.60;99.90;;;;;;5133539;27;20138;-80
2023/12/16 09:48:54;;;;;;;1.23;0.50;;;10.60;99.90;;;;;;5132705;27;20094;-80
2023/12/16 09:51:22;;;;;;;0.40;0.40;;;10.60;99.90;;;;;;5133443;27;20164;-79
2023/12/16 09:53:49;;;;;;;1.20;0.70;;;10.60;99.90;;;;;;5132610;27;20034;-79
2023/12/16 09:56:16;;;;;;;1.70;0.70;;;10.60;99.90;;;;;;5134134;27;20087;-79
2023/12/16 09:58:44;;;;;;;0.50;0.50;;;10.60;99.90;;;;;;5132693;27;20106;-79
2023/12/16 10:01:11;;;;;;;0.70;0.50;;;10.60;99.90;;;;;;5133407;27;20123;-79
2023/12/16 10:03:41;;;;;;;2.13;0.50;;;10.50;99.90;;;;;;5115239;27;20023;-78
2023/12/16 10:06:08;;;;;;;2.22;1.00;;;10.60;99.90;;;;;;5133342;27;20023;-78
2023/12/16 10:08:35;;;;;;;2.30;1.20;;;10.70;99.90;;;;;;5133432;27;20045;-79
2023/12/16 10:11:05;;;;;;;1.45;1.00;;;10.70;99.90;;;;;;5133029;27;20031;-79
2023/12/16 10:13:54;;;;;;;0.40;0.40;;;10.70;99.90;;;;;;5133166;27;20039;-78
2023/12/16 10:16:24;;;;;;;0.50;0.50;;;10.70;99.90;;;;;;5133349;27;20035;-78
2023/12/16 10:18:54;;;;;;;0.30;0.30;;;10.80;99.90;;;;;;5132822;27;20473;-78
2023/12/16 10:21:21;;;;;;;0.60;0.57;;;10.90;99.90;;;;;;5133009;27;20107;-79
2023/12/16 10:23:48;;;;;;;0.70;0.65;;;10.90;99.90;;;;;;5133201;27;20023;-79
2023/12/16 10:26:14;;;;;;;1.30;0.50;;;10.90;99.90;;;;;;5133074;27;20031;-79
2023/12/16 10:28:40;;;;;;;0.50;0.50;;;11.00;99.90;;;;;;5133111;27;20070;-77
2023/12/16 10:31:05;;;;;;;0.40;0.40;;;11.10;99.90;;;;;;5132608;27;20121;-78
2023/12/16 10:33:31;;;;;;;0.45;0.40;;;11.20;99.90;;;;;;5132597;27;20027;-78
2023/12/16 10:35:57;;;;;;;3.40;0.80;;;11.20;99.90;;;;;;5114796;27;20095;-78
2023/12/16 10:38:25;;;;;;;2.13;0.60;;;11.20;99.90;;;;;;5132565;27;20027;-77
2023/12/16 10:40:52;;;;;;;0.98;0.47;;;11.20;99.90;;;;;;5132836;27;20345;-79
2023/12/16 10:43:18;;;;;;;0.95;0.70;;;11.20;99.90;;;;;;5114892;27;20118;-78
2023/12/16 10:45:45;;;;;;;0.35;0.35;;;11.20;99.90;;;;;;5114237;27;20132;-79
2023/12/16 10:48:15;;;;;;;0.98;0.35;;;11.30;99.90;;;;;;5113968;27;20027;-78
2023/12/16 10:50:45;;;;;;;3.17;0.45;;;11.40;99.90;;;;;;5132394;27;20027;-79
2023/12/16 10:53:31;;;;;;;1.15;0.47;;;11.40;99.90;;;;;;5113584;27;20480;-79
2023/12/16 10:56:02;;;;;;;1.75;0.60;;;11.30;99.90;;;;;;5131073;27;20328;-78
2023/12/16 10:58:34;;;;;;;1.40;0.53;;;11.40;99.90;;;;;;5131685;27;20050;-78
2023/12/16 11:01:09;;;;;;;1.13;0.68;;;11.50;99.90;;;;;;5111948;27;20472;-78
2023/12/16 11:03:50;;;;;;;1.27;0.73;;;11.40;99.90;;;;;;5131325;27;20054;-78
2023/12/16 11:06:23;;;;;;;2.95;0.60;;;11.40;99.90;;;;;;5114583;27;20055;-78
2023/12/16 11:08:52;;;;;;;1.33;0.82;;;11.50;99.90;;;;;;5131123;27;20027;-78
2023/12/16 11:11:19;;;;;;;0.90;0.85;;;11.60;99.90;;;;;;5113263;27;20038;-78
2023/12/16 11:13:45;;;;;;;0.80;0.50;;;11.60;99.90;;;;;;5131435;27;20375;-78
2023/12/16 11:16:33;;;;;;;0.60;0.55;;;11.60;99.90;;;;;;5132966;27;20084;-78
2023/12/16 11:19:00;;;;;;;1.10;0.60;;;11.60;99.90;;;;;;5112691;27;20439;-79
2023/12/16 11:21:28;;;;;;;3.92;0.65;;;11.60;99.90;;;;;;5131405;27;20022;-79
2023/12/16 11:23:54;;;;;;;3.20;0.55;;;11.70;99.90;;;;;;5131196;27;20182;-79
2023/12/16 11:26:20;;;;;;;0.50;0.50;;;11.70;99.90;;;;;;5131259;27;20166;-78
2023/12/16 11:28:52;;;;;;;1.25;0.50;;;11.80;99.90;;;;;;5131569;27;20378;-79
2023/12/16 11:31:18;;;;;;;0.60;0.50;;;11.90;99.90;;;;;;5131862;27;20122;-77
2023/12/16 11:33:45;;;;;;;1.48;0.57;;;11.90;99.90;;;;;;5131742;27;20050;-78
2023/12/16 11:36:14;;;;;;;0.73;0.60;;;11.90;99.90;;;;;;5131558;27;20080;-77
2023/12/16 11:38:42;;;;;;;0.55;0.50;;;12.00;99.90;;;;;;5113394;27;20023;-77
2023/12/16 11:41:40;;;;;;;1.85;0.60;;;12.00;99.90;;;;;;5131549;27;20034;-79
2023/12/16 11:44:07;;;;;;;0.40;0.40;;;12.10;99.90;;;;;;5131659;27;20030;-78
2023/12/16 11:46:39;;;;;;;1.25;0.60;;;12.10;99.90;;;;;;5132130;27;20035;-79
2023/12/16 11:49:10;;;;;;;1.83;0.52;;;12.10;99.90;;;;;;5095189;27;20417;-80
2023/12/16 11:51:38;;;;;;;1.13;0.68;;;12.10;99.90;;;;;;5130993;27;20103;-78
2023/12/16 11:54:04;;;;;;;0.93;0.63;;;12.10;99.90;;;;;;5131384;27;20095;-77
2023/12/16 11:56:30;;;;;;;2.33;1.10;;;12.20;99.90;;;;;;5131508;27;20035;-77
2023/12/16 11:58:59;;;;;;;1.25;0.60;;;12.20;99.90;;;;;;5130655;28;20325;-78
2023/12/16 12:01:26;;;;;;;0.80;0.60;;;12.20;99.90;;;;;;5131133;28;20368;-77
2023/12/16 12:03:53;;;;;;;2.05;0.50;;;12.20;99.90;;;;;;5130667;28;20088;-78
2023/12/16 12:06:19;;;;;;;2.83;2.28;;;12.20;99.90;;;;;;5112800;28;20027;-77
2023/12/16 12:08:46;;;;;;;1.17;0.75;;;12.20;99.90;;;;;;5131150;28;20020;-77
2023/12/16 12:11:12;;;;;;;2.63;0.80;;;12.20;99.90;;;;;;5112144;28;20035;-79
2023/12/16 12:13:38;;;;;;;1.45;1.00;;;12.20;99.90;;;;;;5116014;27;20103;-76
2023/12/16 12:16:05;;;;;;;1.58;0.60;;;12.20;99.90;;;;;;5135036;27;20355;-78
2023/12/16 12:18:31;;;;;;;2.22;0.98;;;12.20;99.90;;;;;;5135308;27;20405;-77
2023/12/16 12:20:57;;;;;;;1.65;1.02;;;12.20;99.90;;;;;;5134791;27;20031;-79
2023/12/16 12:23:23;;;;;;;2.42;1.33;;;12.20;99.90;;;;;;5135153;27;20416;-78
2023/12/16 12:25:55;;;;;;;2.17;0.90;;;12.10;99.90;;;;;;5135021;27;20050;-79
2023/12/16 12:28:22;;;;;;;5.90;1.60;;;12.00;99.90;;;;;;5135395;27;20028;-78
2023/12/16 12:30:48;;;;;;;3.13;1.20;;;12.00;99.90;;;;;;5134855;27;20126;-77
2023/12/16 12:33:14;;;;;;;3.78;1.90;;;12.00;99.90;;;;;;5133929;27;20027;-78
2023/12/16 12:35:39;;;;;;;6.18;1.40;;;12.00;99.90;;;;;;5135114;27;20039;-77
2023/12/16 12:38:05;;;;;;;2.22;1.33;;;12.00;99.90;;;;;;5134037;27;20051;-78
2023/12/16 12:40:31;;;;;;;1.35;0.80;;;11.90;99.90;;;;;;5134722;27;20388;-78
2023/12/16 12:42:58;;;;;;;2.83;1.30;;;11.90;99.90;;;;;;5134806;27;20027;-79
2023/12/16 12:45:28;;;;;;;2.75;1.05;;;11.90;99.90;;;;;;5135377;27;20023;-79
2023/12/16 12:47:54;;;;;;;1.98;1.17;;;11.80;99.90;;;;;;5135276;27;20027;-78